KSUS

Spirit of St Louis Airport

St Louis, Missouri, USA
METAR KSUS 210354Z 11003KT 10SM CLR 02/01 A2996 RMK AO2 SLP148 T00170011
Observed Flight Rules
Jan-21 @ 03:54 UTC (46 minutes ago) Visual Flight Rules
Wind Visibility Clouds
110° at 3 knots 10 miles
  • Clear skies
Temperatures Readings
Current 2°C / 36°F
Dewpoint 1°C / 34°F
Humidity 93%
Altimeter 29.96" Hg
Pressure 1014.8 hPa
Elevation 141
METAR KSUS 210354Z 11003KT 10SM CLR 02/01 A2996 RMK AO2 SLP148 T00170011
Observed Flight Rules
Jan-21 @ 03:54 UTC
(46 minutes ago)
VFR
Wind Visibility
110° at 3 knots 10 miles
Clouds
  • Clear skies
Temperature Dewpoint
2°C / 36°F 1°C / 34°F
Humidity Altimeter Pressure
93% 29.96" Hg 1014.8 hPa